createdAt,value
2023-10-08T00:01:16.321Z,20.94
2023-10-08T00:06:23.134Z,20.66
2023-10-08T00:11:25.461Z,21.11
2023-10-08T00:16:30.047Z,21.30
2023-10-08T00:21:34.901Z,21.25
2023-10-08T00:26:41.844Z,21.53
2023-10-08T00:31:47.044Z,21.58
2023-10-08T00:36:50.677Z,21.75
2023-10-08T00:42:01.147Z,21.70
2023-10-08T00:47:06.366Z,21.21
2023-10-08T00:52:11.547Z,21.05
2023-10-08T00:57:23.114Z,21.14
2023-10-08T01:02:56.874Z,21.27
2023-10-08T01:08:00.360Z,21.02
2023-10-08T01:13:02.655Z,20.93
2023-10-08T01:18:16.431Z,20.95
2023-10-08T01:23:22.317Z,20.82
2023-10-08T01:28:30.452Z,21.11
2023-10-08T01:33:33.790Z,20.76
2023-10-08T01:38:36.546Z,20.73
2023-10-08T01:43:40.300Z,20.60
2023-10-08T01:48:46.720Z,20.76
2023-10-08T01:53:49.515Z,20.88
2023-10-08T01:58:52.112Z,20.55
2023-10-08T02:03:54.755Z,20.14
2023-10-08T02:08:57.469Z,20.40
2023-10-08T02:13:59.918Z,20.52
2023-10-08T02:19:02.169Z,20.47
2023-10-08T02:24:04.842Z,20.49
2023-10-08T02:29:12.128Z,20.42
2023-10-08T02:34:14.963Z,20.16
2023-10-08T02:39:24.813Z,20.40
2023-10-08T02:44:28.923Z,20.16
2023-10-08T02:49:33.300Z,20.24
2023-10-08T02:54:38.998Z,20.37
2023-10-08T02:59:42.671Z,20.37
2023-10-08T03:04:47.190Z,19.92
2023-10-08T03:10:05.194Z,20.10
2023-10-08T03:15:26.742Z,20.01
2023-10-08T03:20:40.233Z,20.15
2023-10-08T03:25:47.542Z,20.08
2023-10-08T03:30:51.468Z,19.89
2023-10-08T03:35:56.598Z,19.87
2023-10-08T03:41:05.140Z,20.14
2023-10-08T03:46:07.452Z,20.15
2023-10-08T03:51:13.340Z,19.92
2023-10-08T03:56:16.049Z,19.96
2023-10-08T04:01:22.507Z,19.97
2023-10-08T04:06:32.982Z,20.06
2023-10-08T04:11:43.572Z,19.96
2023-10-08T04:16:47.094Z,19.78
2023-10-08T04:21:58.713Z,19.83
2023-10-08T04:27:00.999Z,19.95
2023-10-08T04:32:09.236Z,19.91
2023-10-08T04:37:14.416Z,20.09
2023-10-08T04:42:19.783Z,19.89
2023-10-08T04:47:34.424Z,20.07
2023-10-08T04:52:47.082Z,20.14
2023-10-08T04:57:50.686Z,19.72
2023-10-08T05:02:55.747Z,19.76
2023-10-08T05:08:18.521Z,19.53
2023-10-08T05:13:32.054Z,19.61
2023-10-08T05:19:00.136Z,19.68
2023-10-08T05:24:14.188Z,19.69
2023-10-08T05:29:51.452Z,19.68
2023-10-08T05:35:13.668Z,19.85
2023-10-08T05:40:35.774Z,19.72
2023-10-08T05:45:38.378Z,19.73
2023-10-08T05:50:43.861Z,19.70
2023-10-08T05:55:49.448Z,19.96
2023-10-08T06:00:52.919Z,19.95
2023-10-08T06:06:15.144Z,20.07
2023-10-08T06:11:55.498Z,19.98
2023-10-08T06:17:17.568Z,20.10
2023-10-08T06:22:20.748Z,19.86
2023-10-08T06:27:26.937Z,19.92
2023-10-08T06:32:31.896Z,20.14
2023-10-08T06:37:36.307Z,20.52
2023-10-08T06:42:39.209Z,20.64
2023-10-08T06:47:42.091Z,20.65
2023-10-08T06:52:45.069Z,20.84
2023-10-08T06:57:49.489Z,20.89
2023-10-08T07:02:52.647Z,21.14
2023-10-08T07:07:55.009Z,21.09
2023-10-08T07:12:57.264Z,21.21
2023-10-08T07:18:09.754Z,21.38
2023-10-08T07:23:20.335Z,21.74
2023-10-08T07:28:22.647Z,21.78
2023-10-08T07:33:26.695Z,22.04
2023-10-08T07:38:30.180Z,21.94
2023-10-08T07:43:34.254Z,22.11
2023-10-08T07:48:44.568Z,22.11
2023-10-08T07:53:48.509Z,22.35
2023-10-08T07:58:52.347Z,22.24
2023-10-08T08:03:54.772Z,22.35
2023-10-08T08:08:57.184Z,22.59
2023-10-08T08:14:00.929Z,22.66
2023-10-08T08:19:03.499Z,22.79
2023-10-08T08:24:09.381Z,22.99
2023-10-08T08:29:16.957Z,23.37
2023-10-08T08:34:21.335Z,23.67
2023-10-08T08:39:33.849Z,23.72
2023-10-08T08:44:48.945Z,23.85
2023-10-08T08:49:54.973Z,23.96
2023-10-08T08:54:58.338Z,24.04
2023-10-08T09:00:01.151Z,24.28
2023-10-08T09:05:14.634Z,24.28
2023-10-08T09:10:19.591Z,24.38
2023-10-08T09:15:24.213Z,24.48
2023-10-08T09:20:28.119Z,24.81
2023-10-08T09:25:34.091Z,24.91
2023-10-08T09:30:41.438Z,24.87
2023-10-08T09:35:47.673Z,25.02
2023-10-08T09:40:50.436Z,25.12
2023-10-08T09:46:07.351Z,25.48
2023-10-08T09:51:14.081Z,25.51
2023-10-08T09:56:17.451Z,25.60
2023-10-08T10:01:24.140Z,25.65
2023-10-08T10:06:26.599Z,25.68
2023-10-08T10:11:30.660Z,26.00
2023-10-08T10:16:32.956Z,26.01
2023-10-08T10:21:35.590Z,26.11
2023-10-08T10:26:42.020Z,26.36
2023-10-08T10:31:50.713Z,26.54
2023-10-08T10:36:57.753Z,26.61
2023-10-08T10:42:04.674Z,27.00
2023-10-08T10:47:19.314Z,27.02
2023-10-08T10:52:44.643Z,27.08
2023-10-08T10:57:58.520Z,27.23
2023-10-08T11:03:04.552Z,27.20
2023-10-08T11:08:10.496Z,27.49
2023-10-08T11:13:18.785Z,27.79
2023-10-08T11:18:23.315Z,28.05
2023-10-08T11:23:43.421Z,28.14
2023-10-08T11:28:48.769Z,28.18
2023-10-08T11:33:56.804Z,28.14
2023-10-08T11:39:13.131Z,28.18
2023-10-08T11:44:15.856Z,28.44
2023-10-08T11:49:27.101Z,28.63
2023-10-08T11:54:29.536Z,28.77
2023-10-08T11:59:33.692Z,28.96
2023-10-08T12:04:37.818Z,28.96
2023-10-08T12:09:42.502Z,28.82
2023-10-08T12:14:48.779Z,29.18
2023-10-08T12:19:53.089Z,29.22
2023-10-08T12:24:55.307Z,29.54
2023-10-08T12:30:00.780Z,29.61
2023-10-08T12:35:03.156Z,29.70
2023-10-08T12:40:13.347Z,29.79
2023-10-08T12:45:15.714Z,30.02
2023-10-08T12:50:51.839Z,30.27
2023-10-08T12:55:59.564Z,30.51
2023-10-08T13:01:05.373Z,30.77
2023-10-08T13:06:07.804Z,30.57
2023-10-08T13:11:10.046Z,30.42
2023-10-08T13:16:12.440Z,30.52
2023-10-08T13:21:15.026Z,30.77
2023-10-08T13:26:18.700Z,30.77
2023-10-08T13:31:21.531Z,30.85
2023-10-08T13:36:27.164Z,30.92
2023-10-08T13:41:32.050Z,30.74
2023-10-08T13:46:38.304Z,30.95
2023-10-08T13:51:40.584Z,31.05
2023-10-08T13:56:49.958Z,31.00
2023-10-08T14:01:56.535Z,31.26
2023-10-08T14:07:00.102Z,31.40
2023-10-08T14:12:02.480Z,31.29
2023-10-08T14:17:07.735Z,31.22
2023-10-08T14:22:15.961Z,31.27
2023-10-08T14:27:20.108Z,31.37
2023-10-08T14:32:22.380Z,31.23
2023-10-08T14:37:43.251Z,31.18
2023-10-08T14:43:00.032Z,31.09
2023-10-08T14:48:07.173Z,31.10
2023-10-08T14:53:09.700Z,30.82
2023-10-08T14:58:12.420Z,30.99
2023-10-08T15:03:15.030Z,30.72
2023-10-08T15:08:20.183Z,30.73
2023-10-08T15:13:22.862Z,30.58
2023-10-08T15:18:33.313Z,30.93
2023-10-08T15:23:37.151Z,30.95
2023-10-08T15:28:42.097Z,30.74
2023-10-08T15:33:44.492Z,30.22
2023-10-08T15:38:47.115Z,29.92
2023-10-08T15:43:53.303Z,29.67
2023-10-08T15:48:55.709Z,29.49
2023-10-08T15:53:58.052Z,29.15
2023-10-08T15:59:00.592Z,28.86
2023-10-08T16:04:03.125Z,28.59
2023-10-08T16:09:07.405Z,28.52
2023-10-08T16:14:09.678Z,28.43
2023-10-08T16:19:12.190Z,28.28
2023-10-08T16:24:14.707Z,27.88
2023-10-08T16:29:17.179Z,27.83
2023-10-08T16:34:19.900Z,27.74
2023-10-08T16:39:25.871Z,27.62
2023-10-08T16:44:28.274Z,27.32
2023-10-08T16:49:30.786Z,27.17
2023-10-08T16:54:33.279Z,26.84
2023-10-08T16:59:38.931Z,27.01
2023-10-08T17:04:48.615Z,26.93
2023-10-08T17:09:53.079Z,26.69
2023-10-08T17:14:55.910Z,26.54
2023-10-08T17:19:58.457Z,26.37
2023-10-08T17:25:00.892Z,26.65
2023-10-08T17:30:07.716Z,26.43
2023-10-08T17:35:10.700Z,26.16
2023-10-08T17:40:13.475Z,26.08
2023-10-08T17:45:16.424Z,26.06
2023-10-08T17:50:19.257Z,26.20
2023-10-08T17:55:21.773Z,25.89
2023-10-08T18:00:28.331Z,25.76
2023-10-08T18:05:33.346Z,25.74
2023-10-08T18:10:37.350Z,25.47
2023-10-08T18:15:40.360Z,25.56
2023-10-08T18:20:45.905Z,25.26
2023-10-08T18:25:48.223Z,25.12
2023-10-08T18:30:51.560Z,25.18
2023-10-08T18:35:54.262Z,25.27
2023-10-08T18:40:57.320Z,24.89
2023-10-08T18:46:00.885Z,24.88
2023-10-08T18:51:13.107Z,24.82
2023-10-08T18:56:20.326Z,24.95
2023-10-08T19:01:30.903Z,24.69
2023-10-08T19:06:33.550Z,24.66
2023-10-08T19:11:36.821Z,24.72
2023-10-08T19:16:39.959Z,24.49
2023-10-08T19:21:42.248Z,24.28
2023-10-08T19:26:44.661Z,24.28
2023-10-08T19:31:47.799Z,24.32
2023-10-08T19:36:50.883Z,24.52
2023-10-08T19:41:53.526Z,24.24
2023-10-08T19:46:56.631Z,24.20
2023-10-08T19:51:59.174Z,23.83
2023-10-08T19:57:02.538Z,23.82
2023-10-08T20:02:04.897Z,23.90
2023-10-08T20:07:09.046Z,23.66
2023-10-08T20:12:11.746Z,23.58
2023-10-08T20:17:14.663Z,23.39
2023-10-08T20:22:18.027Z,23.63
2023-10-08T20:27:21.669Z,23.61
2023-10-08T20:32:30.970Z,23.23
2023-10-08T20:37:34.770Z,23.50
2023-10-08T20:42:38.135Z,23.69
2023-10-08T20:47:41.739Z,23.59
2023-10-08T20:52:47.496Z,23.22
2023-10-08T20:57:51.004Z,23.36
2023-10-08T21:02:53.333Z,23.22
2023-10-08T21:07:56.172Z,23.43
2023-10-08T21:12:58.503Z,23.23
2023-10-08T21:18:00.753Z,23.10
2023-10-08T21:23:06.741Z,23.24
2023-10-08T21:28:10.610Z,23.09
2023-10-08T21:33:13.237Z,23.07
2023-10-08T21:38:15.714Z,22.72
2023-10-08T21:43:30.069Z,22.37
2023-10-08T21:48:35.491Z,22.32
2023-10-08T21:53:37.896Z,22.16
2023-10-08T21:58:40.990Z,22.17
2023-10-08T22:03:45.524Z,22.15
2023-10-08T22:08:50.296Z,22.27
2023-10-08T22:13:53.135Z,22.44
2023-10-08T22:18:58.373Z,22.48
2023-10-08T22:24:01.420Z,22.63
2023-10-08T22:29:04.261Z,22.47
2023-10-08T22:34:17.127Z,22.44
2023-10-08T22:39:22.259Z,22.18
2023-10-08T22:44:27.767Z,22.31
2023-10-08T22:49:33.368Z,21.83
2023-10-08T22:54:36.453Z,21.50
2023-10-08T22:59:41.480Z,21.99
2023-10-08T23:04:45.591Z,22.30
2023-10-08T23:09:47.985Z,22.22
2023-10-08T23:14:50.225Z,22.20
2023-10-08T23:19:53.137Z,22.31
2023-10-08T23:24:57.357Z,22.54
2023-10-08T23:29:59.985Z,22.40
2023-10-08T23:35:02.465Z,22.50
2023-10-08T23:40:20.407Z,22.36
2023-10-08T23:45:28.356Z,22.05
2023-10-08T23:50:35.270Z,21.76
2023-10-08T23:55:57.538Z,22.10
